createdAt,value
2023-02-18T00:02:32.912Z,5.84
2023-02-18T00:07:33.262Z,5.80
2023-02-18T00:12:31.250Z,5.87
2023-02-18T00:17:29.226Z,5.86
2023-02-18T00:22:25.557Z,5.96
2023-02-18T00:27:21.860Z,6.02
2023-02-18T00:32:18.443Z,6.03
2023-02-18T00:37:14.757Z,6.17
2023-02-18T00:42:11.226Z,6.18
2023-02-18T00:47:07.668Z,6.25
2023-02-18T00:52:04.384Z,6.30
2023-02-18T00:57:00.750Z,6.39
2023-02-18T01:01:57.098Z,6.54
2023-02-18T01:06:53.439Z,6.60
2023-02-18T01:11:49.894Z,6.78
2023-02-18T01:16:46.302Z,6.81
2023-02-18T01:21:42.655Z,6.91
2023-02-18T01:26:38.927Z,7.01
2023-02-18T01:31:35.456Z,7.13
2023-02-18T01:36:31.926Z,7.21
2023-02-18T01:41:28.419Z,7.26
2023-02-18T01:46:25.742Z,7.29
2023-02-18T01:51:43.906Z,7.31
2023-02-18T01:56:53.214Z,7.40
2023-02-18T02:01:49.811Z,7.50
2023-02-18T02:06:46.148Z,7.41
2023-02-18T02:12:07.019Z,7.45
2023-02-18T02:17:17.713Z,7.44
2023-02-18T02:22:34.898Z,7.58
2023-02-18T02:28:08.779Z,7.72
2023-02-18T02:33:25.404Z,7.63
2023-02-18T02:38:44.279Z,7.76
2023-02-18T02:43:43.470Z,7.80
2023-02-18T02:49:08.415Z,7.82
2023-02-18T02:54:22.150Z,7.93
2023-02-18T02:59:22.561Z,8.06
2023-02-18T03:04:21.931Z,8.15
2023-02-18T03:09:46.140Z,8.29
2023-02-18T03:15:17.961Z,8.36
2023-02-18T03:20:25.572Z,8.41
2023-02-18T03:25:23.580Z,8.46
2023-02-18T03:30:22.895Z,8.47
2023-02-18T03:35:20.161Z,8.46
2023-02-18T03:40:17.653Z,8.47
2023-02-18T03:45:14.031Z,8.46
2023-02-18T03:50:10.445Z,8.46
2023-02-18T03:55:07.242Z,8.46
2023-02-18T04:00:06.224Z,8.52
2023-02-18T04:05:03.113Z,8.52
2023-02-18T04:09:59.468Z,8.55
2023-02-18T04:14:55.776Z,8.60
2023-02-18T04:19:52.200Z,8.63
2023-02-18T04:24:48.501Z,8.63
2023-02-18T04:29:44.916Z,8.68
2023-02-18T04:34:41.321Z,8.71
2023-02-18T04:39:37.652Z,8.74
2023-02-18T04:44:34.599Z,8.74
2023-02-18T04:49:30.913Z,8.78
2023-02-18T04:54:27.345Z,8.78
2023-02-18T04:59:23.745Z,8.80
2023-02-18T05:04:20.219Z,8.83
2023-02-18T05:09:16.711Z,8.84
2023-02-18T05:14:13.658Z,8.87
2023-02-18T05:19:14.536Z,8.87
2023-02-18T05:24:10.837Z,8.87
2023-02-18T05:29:07.269Z,8.90
2023-02-18T05:34:03.966Z,8.94
2023-02-18T05:39:00.714Z,8.92
2023-02-18T05:44:15.884Z,8.91
2023-02-18T05:49:12.839Z,8.94
2023-02-18T05:54:09.176Z,8.96
2023-02-18T05:59:05.630Z,8.94
2023-02-18T06:04:01.921Z,8.96
2023-02-18T06:08:58.346Z,8.96
2023-02-18T06:13:54.687Z,8.94
2023-02-18T06:18:51.021Z,8.94
2023-02-18T06:23:47.485Z,8.90
2023-02-18T06:28:43.796Z,8.89
2023-02-18T06:33:40.670Z,8.88
2023-02-18T06:38:40.164Z,8.86
2023-02-18T06:43:36.532Z,8.87
2023-02-18T06:48:33.230Z,8.85
2023-02-18T06:53:29.650Z,8.86
2023-02-18T06:58:26.080Z,8.86
2023-02-18T07:03:22.433Z,8.87
2023-02-18T07:08:18.896Z,8.86
2023-02-18T07:13:15.421Z,8.87
2023-02-18T07:18:12.087Z,8.86
2023-02-18T07:23:08.383Z,8.86
2023-02-18T07:28:04.908Z,8.85
2023-02-18T07:33:03.848Z,8.86
2023-02-18T07:38:00.310Z,8.91
2023-02-18T07:42:56.631Z,8.90
2023-02-18T07:47:52.954Z,8.92
2023-02-18T07:52:49.246Z,8.95
2023-02-18T07:57:57.452Z,8.93
2023-02-18T08:02:53.796Z,8.93
2023-02-18T08:07:50.109Z,8.93
2023-02-18T08:12:46.439Z,8.92
2023-02-18T08:17:42.758Z,8.91
2023-02-18T08:22:39.054Z,8.93
2023-02-18T08:27:35.422Z,8.97
2023-02-18T08:32:31.772Z,8.98
2023-02-18T08:37:28.077Z,9.01
2023-02-18T08:42:24.435Z,9.08
2023-02-18T08:48:18.202Z,9.09
2023-02-18T08:52:37.167Z,9.13
2023-02-18T08:57:33.592Z,9.13
2023-02-18T09:02:30.206Z,9.10
2023-02-18T09:07:26.501Z,9.05
2023-02-18T09:12:22.830Z,9.03
2023-02-18T09:17:19.101Z,9.07
2023-02-18T09:22:15.562Z,9.06
2023-02-18T09:27:12.059Z,9.06
2023-02-18T09:32:09.096Z,9.03
2023-02-18T09:37:05.580Z,8.98
2023-02-18T09:42:10.712Z,8.96
2023-02-18T09:47:18.051Z,8.97
2023-02-18T09:52:20.343Z,8.86
2023-02-18T09:57:39.242Z,8.76
2023-02-18T10:02:37.256Z,8.70
2023-02-18T10:07:36.665Z,8.67
2023-02-18T10:12:35.053Z,8.68
2023-02-18T10:17:32.640Z,8.65
2023-02-18T10:22:30.018Z,8.58
2023-02-18T10:27:30.007Z,8.57
2023-02-18T10:32:36.538Z,8.54
2023-02-18T10:37:54.748Z,8.46
2023-02-18T10:43:03.182Z,8.40
2023-02-18T10:48:28.282Z,8.40
2023-02-18T10:53:37.561Z,8.36
2023-02-18T10:58:36.682Z,8.35
2023-02-18T11:03:43.526Z,8.31
2023-02-18T11:08:44.090Z,8.31
2023-02-18T11:13:41.245Z,8.33
2023-02-18T11:18:46.414Z,8.28
2023-02-18T11:23:48.700Z,8.29
2023-02-18T11:28:48.696Z,8.21
2023-02-18T11:33:50.412Z,8.14
2023-02-18T11:38:53.883Z,8.16
2023-02-18T11:43:52.980Z,8.11
2023-02-18T11:48:50.509Z,8.08
2023-02-18T11:54:06.119Z,8.07
2023-02-18T11:59:04.132Z,8.09
2023-02-18T12:04:06.271Z,8.11
2023-02-18T12:09:28.589Z,8.11
2023-02-18T12:14:25.386Z,8.08
2023-02-18T12:19:46.148Z,8.09
2023-02-18T12:24:57.413Z,8.07
2023-02-18T12:30:10.796Z,8.06
2023-02-18T12:35:47.548Z,8.07
2023-02-18T12:41:07.694Z,8.04
2023-02-18T12:46:31.838Z,8.07
2023-02-18T12:51:50.154Z,8.12
2023-02-18T12:57:01.435Z,8.13
2023-02-18T13:02:24.874Z,8.12
2023-02-18T13:07:36.552Z,8.15
2023-02-18T13:12:45.874Z,8.20
2023-02-18T13:17:44.038Z,8.19
2023-02-18T13:22:40.555Z,8.20
2023-02-18T13:27:47.829Z,8.22
2023-02-18T13:33:02.621Z,8.23
2023-02-18T13:38:27.020Z,8.27
2023-02-18T13:43:32.842Z,8.32
2023-02-18T13:48:29.537Z,8.42
2023-02-18T13:53:29.253Z,8.49
2023-02-18T13:58:34.882Z,8.53
2023-02-18T14:03:50.834Z,8.53
2023-02-18T14:08:47.832Z,8.58
2023-02-18T14:13:49.436Z,8.51
2023-02-18T14:18:45.766Z,8.47
2023-02-18T14:23:45.052Z,8.52
2023-02-18T14:28:49.127Z,8.60
2023-02-18T14:34:04.072Z,8.65
2023-02-18T14:39:28.400Z,8.69
2023-02-18T14:44:42.794Z,8.73
2023-02-18T14:49:53.022Z,8.74
2023-02-18T14:54:49.677Z,8.78
2023-02-18T14:59:47.639Z,8.81
2023-02-18T15:04:45.935Z,8.83
2023-02-18T15:09:53.032Z,8.84
2023-02-18T15:14:52.241Z,8.86
2023-02-18T15:19:54.302Z,8.91
2023-02-18T15:24:54.743Z,8.95
2023-02-18T15:29:53.364Z,8.98
2023-02-18T15:34:56.234Z,9.00
2023-02-18T15:39:52.628Z,8.99
2023-02-18T15:44:52.099Z,9.01
2023-02-18T15:49:54.554Z,9.00
2023-02-18T15:54:51.294Z,8.99
2023-02-18T15:59:55.614Z,8.99
2023-02-18T16:05:00.299Z,9.03
2023-02-18T16:10:16.002Z,9.03
2023-02-18T16:15:23.176Z,9.01
2023-02-18T16:20:38.487Z,8.98
2023-02-18T16:25:50.252Z,9.02
2023-02-18T16:30:46.684Z,9.06
2023-02-18T16:35:50.096Z,9.05
2023-02-18T16:40:47.541Z,9.07
2023-02-18T16:45:49.606Z,9.07
2023-02-18T16:50:47.148Z,9.03
2023-02-18T16:55:43.445Z,9.09
2023-02-18T17:00:39.834Z,9.07
2023-02-18T17:05:39.318Z,9.03
2023-02-18T17:10:35.830Z,9.01
2023-02-18T17:15:35.384Z,9.00
2023-02-18T17:20:33.141Z,8.99
2023-02-18T17:25:34.152Z,9.02
2023-02-18T17:30:32.105Z,9.02
2023-02-18T17:35:28.441Z,9.07
2023-02-18T17:40:27.865Z,9.05
2023-02-18T17:45:29.169Z,9.02
2023-02-18T17:50:26.391Z,8.95
2023-02-18T17:55:28.075Z,8.88
2023-02-18T18:00:33.688Z,8.86
2023-02-18T18:05:39.718Z,8.74
2023-02-18T18:10:39.597Z,8.73
2023-02-18T18:15:40.999Z,8.80
2023-02-18T18:20:38.093Z,8.85
2023-02-18T18:25:39.943Z,8.82
2023-02-18T18:30:42.623Z,8.80
2023-02-18T18:35:39.053Z,8.72
2023-02-18T18:40:36.122Z,8.62
2023-02-18T18:45:39.666Z,8.57
2023-02-18T18:50:39.181Z,8.56
2023-02-18T18:55:38.341Z,8.56
2023-02-18T19:00:40.843Z,8.57
2023-02-18T19:05:40.289Z,8.56
2023-02-18T19:10:42.932Z,8.53
2023-02-18T19:15:40.043Z,8.53
2023-02-18T19:20:36.490Z,8.48
2023-02-18T19:25:33.053Z,8.44
2023-02-18T19:30:34.132Z,8.40
2023-02-18T19:35:31.599Z,8.39
2023-02-18T19:40:30.262Z,8.39
2023-02-18T19:45:26.693Z,8.38
2023-02-18T19:50:25.287Z,8.35
2023-02-18T19:55:22.013Z,8.34
2023-02-18T20:00:20.692Z,8.36
2023-02-18T20:05:17.880Z,8.34
2023-02-18T20:10:17.509Z,8.36
2023-02-18T20:15:14.139Z,8.40
2023-02-18T20:20:10.682Z,8.45
2023-02-18T20:25:07.425Z,8.63
2023-02-18T20:30:06.064Z,8.81
2023-02-18T20:35:03.951Z,8.61
2023-02-18T20:40:00.228Z,8.51
2023-02-18T20:44:56.593Z,8.46
2023-02-18T20:49:53.006Z,8.44
2023-02-18T20:54:49.373Z,8.39
2023-02-18T20:59:45.766Z,8.37
2023-02-18T21:04:42.927Z,8.33
2023-02-18T21:09:39.335Z,8.35
2023-02-18T21:14:35.906Z,8.34
2023-02-18T21:19:32.265Z,8.33
2023-02-18T21:24:29.048Z,8.33
2023-02-18T21:29:25.748Z,8.33
2023-02-18T21:34:22.829Z,8.30
2023-02-18T21:39:19.447Z,8.31
2023-02-18T21:44:15.781Z,8.30
2023-02-18T21:49:12.465Z,8.29
2023-02-18T21:54:08.968Z,8.30
2023-02-18T21:59:05.241Z,8.30
2023-02-18T22:04:01.542Z,8.29
2023-02-18T22:09:00.620Z,8.30
2023-02-18T22:13:57.736Z,8.29
2023-02-18T22:18:57.646Z,8.27
2023-02-18T22:23:53.947Z,8.27
2023-02-18T22:28:52.204Z,8.24
2023-02-18T22:33:51.440Z,8.24
2023-02-18T22:38:48.568Z,8.22
2023-02-18T22:43:44.948Z,8.19
2023-02-18T22:48:41.633Z,8.20
2023-02-18T22:53:39.136Z,8.19
2023-02-18T22:58:36.524Z,8.16
2023-02-18T23:03:33.361Z,8.14
2023-02-18T23:08:30.842Z,8.13
2023-02-18T23:13:27.138Z,8.08
2023-02-18T23:18:23.636Z,8.12
2023-02-18T23:23:19.914Z,8.20
2023-02-18T23:28:16.207Z,8.15
2023-02-18T23:33:12.494Z,8.13
2023-02-18T23:38:09.086Z,8.17
2023-02-18T23:43:05.410Z,8.12
2023-02-18T23:48:01.793Z,8.16
2023-02-18T23:52:58.122Z,8.13
2023-02-18T23:57:54.433Z,8.08
